Time;durP1;ratioP1;P1;durP2;ratioP2;P2;SDS_P1;SDS_P2;PMS_P1;PMS_P2;Temp;Humidity;BMP_temperature;BMP_pressure;BME280_temperature;BME280_humidity;BME280_pressure;Samples;Min_cycle;Max_cycle;Signal;HPM_P1;HPM_P2
2024/02/07 00:00:00;;;;;;;7.75;0.40;;;;;;;-146.25;100.00;52643.97;2112963;28;20028;-61
2024/02/07 00:01:01;;;;;;;7.18;0.32;;;;;;;-146.25;100.00;52619.63;2112942;28;29789;-61
2024/02/07 00:02:06;;;;;;;6.75;0.25;;;;;;;-146.25;100.00;52643.97;2112627;28;32497;-61
2024/02/07 00:03:10;;;;;;;8.57;0.40;;;;;;;-146.25;100.00;52648.00;2113340;28;20928;-61
2024/02/07 00:04:11;;;;;;;9.05;0.40;;;;;;;-146.25;100.00;52645.97;2112719;28;35546;-61
2024/02/07 00:05:13;;;;;;;11.02;0.75;;;;;;;-146.25;100.00;52648.00;2112929;28;28356;-61
2024/02/07 00:06:16;;;;;;;9.90;0.40;;;;;;;-146.25;100.00;52652.06;2113314;28;20040;-61
2024/02/07 00:07:18;;;;;;;7.03;0.47;;;;;;;-146.25;100.00;52643.97;2112482;28;36366;-62
2024/02/07 00:08:20;;;;;;;10.25;0.70;;;;;;;-146.25;100.00;52658.16;2112440;28;32309;-61
2024/02/07 00:09:22;;;;;;;8.20;0.55;;;;;;;-146.25;100.00;52652.06;2104454;28;20943;-61
2024/02/07 00:10:24;;;;;;;7.78;0.20;;;;;;;-146.25;100.00;52627.75;2103527;28;33230;-61
2024/02/07 00:11:25;;;;;;;4.35;0.30;;;;;;;-146.25;100.00;52639.91;2113158;28;32222;-61
2024/02/07 00:12:28;;;;;;;6.95;0.50;;;;;;;-146.25;100.00;52639.91;2113637;28;20124;-61
2024/02/07 00:13:32;;;;;;;8.52;0.40;;;;;;;-146.25;100.00;52648.00;2103398;28;33661;-61
2024/02/07 00:14:34;;;;;;;9.05;0.40;;;;;;;-146.25;100.00;52670.31;2103847;28;35220;-61
2024/02/07 00:15:35;;;;;;;8.48;0.60;;;;;;;-146.25;100.00;52650.03;2113301;28;20093;-61
2024/02/07 00:16:39;;;;;;;10.10;0.47;;;;;;;-146.25;100.00;52615.56;2112807;28;20117;-61
2024/02/07 00:17:41;;;;;;;6.15;0.30;;;;;;;-146.25;100.00;52676.41;2113089;28;31835;-61
2024/02/07 00:18:43;;;;;;;9.30;0.60;;;;;;;-146.25;100.00;52648.00;2113036;28;20044;-61
2024/02/07 00:19:47;;;;;;;9.35;0.60;;;;;;;-146.25;100.00;52639.91;2112315;28;36447;-61
2024/02/07 00:20:48;;;;;;;6.00;0.50;;;;;;;-146.25;100.00;52625.72;2112523;28;25496;-61
2024/02/07 00:21:50;;;;;;;5.05;0.40;;;;;;;-146.25;100.00;52668.28;2112599;28;35579;-62
2024/02/07 00:22:52;;;;;;;7.78;0.52;;;;;;;-146.25;100.00;52700.72;2112481;28;37058;-61
2024/02/07 00:23:54;;;;;;;12.18;0.40;;;;;;;-146.25;100.00;52637.88;2112716;28;31935;-61
2024/02/07 00:24:55;;;;;;;11.65;0.73;;;;;;;-146.25;100.00;52660.19;2113125;28;20043;-61
2024/02/07 00:25:58;;;;;;;11.55;0.77;;;;;;;-146.25;100.00;52611.50;2113378;28;20989;-62
2024/02/07 00:27:00;;;;;;;8.98;0.55;;;;;;;-146.25;100.00;52627.75;2112166;28;35936;-61
2024/02/07 00:28:02;;;;;;;7.25;0.40;;;;;;;-146.25;100.00;52639.91;2112927;28;33360;-62
2024/02/07 00:29:04;;;;;;;9.52;0.43;;;;;;;-146.25;100.00;52633.81;2111892;28;37907;-62
2024/02/07 00:30:06;;;;;;;9.07;0.55;;;;;;;-146.25;100.00;52658.16;2113209;28;20854;-61
2024/02/07 00:31:08;;;;;;;6.85;0.57;;;;;;;-146.25;100.00;52650.03;2111573;28;37014;-61
2024/02/07 00:32:10;;;;;;;8.75;0.82;;;;;;;-146.25;100.00;52645.97;2112504;28;20098;-62
2024/02/07 00:33:12;;;;;;;7.07;0.43;;;;;;;-146.25;100.00;52641.94;2111090;28;33786;-61
2024/02/07 00:34:14;;;;;;;7.65;0.47;;;;;;;-146.25;100.00;52611.50;2112394;28;32100;-61
2024/02/07 00:35:16;;;;;;;9.68;0.28;;;;;;;-146.25;100.00;52623.69;2112486;28;33025;-61
2024/02/07 00:36:18;;;;;;;7.70;0.40;;;;;;;-146.25;100.00;52629.75;2112607;28;35882;-61
2024/02/07 00:37:19;;;;;;;13.27;0.47;;;;;;;-146.25;100.00;52676.41;2112806;28;20452;-61
2024/02/07 00:38:24;;;;;;;8.43;0.75;;;;;;;-146.25;100.00;52619.63;2112711;28;39481;-62
2024/02/07 00:39:26;;;;;;;7.15;0.38;;;;;;;-146.25;100.00;52641.94;2112421;28;33325;-61
2024/02/07 00:40:30;;;;;;;15.85;0.57;;;;;;;-146.25;100.00;52635.84;2112654;28;34531;-62
2024/02/07 00:41:31;;;;;;;12.98;0.50;;;;;;;-146.25;100.00;52688.56;2112105;28;35603;-61
2024/02/07 00:42:33;;;;;;;7.47;0.35;;;;;;;-146.25;100.00;52656.13;2113375;28;20028;-62
2024/02/07 00:43:35;;;;;;;7.95;0.47;;;;;;;-146.25;100.00;52637.88;2112123;28;32012;-62
2024/02/07 00:44:38;;;;;;;8.25;0.43;;;;;;;-146.25;100.00;52658.16;2112814;28;32928;-60
2024/02/07 00:45:40;;;;;;;5.53;0.38;;;;;;;-146.25;100.00;52645.97;2111849;28;33056;-61
2024/02/07 00:46:42;;;;;;;7.95;0.50;;;;;;;-146.25;100.00;52662.22;2112828;28;36996;-61
2024/02/07 00:47:46;;;;;;;6.45;0.50;;;;;;;-146.25;100.00;52660.19;2111931;28;33788;-61
2024/02/07 00:48:48;;;;;;;9.75;0.63;;;;;;;-146.25;100.00;52635.84;2112379;28;38869;-61
2024/02/07 00:49:50;;;;;;;8.20;0.43;;;;;;;-146.25;100.00;52631.78;2112790;27;25665;-62
2024/02/07 00:50:51;;;;;;;8.68;0.70;;;;;;;-146.25;100.00;52635.84;2114246;28;34502;-61
2024/02/07 00:51:53;;;;;;;8.85;0.70;;;;;;;-146.25;100.00;52621.66;2113793;28;32963;-62
2024/02/07 00:52:55;;;;;;;8.63;0.63;;;;;;;-146.25;100.00;52617.59;2114111;28;34321;-61
2024/02/07 00:53:59;;;;;;;8.05;0.52;;;;;;;-146.25;100.00;52643.97;2113685;28;37977;-61
2024/02/07 00:55:01;;;;;;;6.30;0.65;;;;;;;-146.25;100.00;52609.50;2114577;28;20032;-62
2024/02/07 00:56:03;;;;;;;14.30;1.08;;;;;;;-146.25;100.00;52627.75;2114133;28;33624;-61
2024/02/07 00:57:08;;;;;;;16.08;0.77;;;;;;;-146.25;100.00;52652.06;2113790;28;34237;-61
2024/02/07 00:58:12;;;;;;;10.27;0.82;;;;;;;-146.25;100.00;52686.53;2113332;28;34727;-61
2024/02/07 00:59:13;;;;;;;6.80;0.60;;;;;;;-146.25;100.00;52660.19;2113627;28;36884;-61
2024/02/07 01:00:16;;;;;;;10.18;0.50;;;;;;;-146.25;100.00;52617.59;2114084;28;20044;-62
2024/02/07 01:01:19;;;;;;;7.45;0.60;;;;;;;-146.25;100.00;52643.97;2113925;28;36074;-61
2024/02/07 01:02:21;;;;;;;9.70;0.88;;;;;;;-146.25;100.00;52629.75;2114399;28;20129;-62
2024/02/07 01:03:24;;;;;;;12.27;0.95;;;;;;;-146.25;100.00;52680.47;2114934;28;26252;-61
2024/02/07 01:04:25;;;;;;;10.93;0.52;;;;;;;-146.25;100.00;52652.06;2113268;28;35474;-61
2024/02/07 01:05:27;;;;;;;11.35;0.80;;;;;;;-146.25;100.00;52615.56;2114757;28;20822;-62
2024/02/07 01:06:29;;;;;;;9.00;0.52;;;;;;;-146.25;100.00;52635.84;2113492;28;34614;-62
2024/02/07 01:07:31;;;;;;;11.75;0.77;;;;;;;-146.25;100.00;52643.97;2114464;28;27047;-62
2024/02/07 01:08:32;;;;;;;8.00;0.60;;;;;;;-146.25;100.00;52645.97;2113723;28;32272;-62
2024/02/07 01:09:34;;;;;;;11.70;0.70;;;;;;;-146.25;100.00;52639.91;2113754;28;37685;-62
2024/02/07 01:10:36;;;;;;;11.45;0.85;;;;;;;-146.25;100.00;52641.94;2114517;28;20156;-62
2024/02/07 01:11:38;;;;;;;11.93;0.68;;;;;;;-146.25;100.00;52645.97;2113886;28;35376;-61
2024/02/07 01:12:40;;;;;;;11.63;0.60;;;;;;;-146.25;100.00;52682.47;2113242;28;34965;-61
2024/02/07 01:13:42;;;;;;;8.45;0.70;;;;;;;-146.25;100.00;52611.50;2114167;28;32119;-61
2024/02/07 01:14:43;;;;;;;10.57;0.47;;;;;;;-146.25;100.00;52648.00;2113448;28;36675;-61
2024/02/07 01:15:45;;;;;;;12.93;0.60;;;;;;;-146.25;100.00;52631.78;2114660;28;20044;-61
2024/02/07 01:16:47;;;;;;;7.45;0.90;;;;;;;-146.25;100.00;52631.78;2113695;28;33771;-61
2024/02/07 01:17:49;;;;;;;10.63;0.77;;;;;;;-146.25;100.00;52660.19;2113744;28;36613;-61
2024/02/07 01:18:51;;;;;;;10.75;1.08;;;;;;;-146.25;100.00;52639.91;2114428;28;31356;-61
2024/02/07 01:19:53;;;;;;;11.18;0.85;;;;;;;-146.25;100.00;52674.38;2114005;28;36581;-62
2024/02/07 01:20:55;;;;;;;12.27;0.70;;;;;;;-146.25;100.00;52660.19;2113990;28;21042;-61
2024/02/07 01:21:56;;;;;;;11.77;0.65;;;;;;;-146.25;100.00;52656.13;2114086;28;32265;-62
2024/02/07 01:22:58;;;;;;;11.25;0.80;;;;;;;-146.25;100.00;52648.00;2113487;28;34674;-61
2024/02/07 01:24:00;;;;;;;12.63;0.60;;;;;;;-146.25;100.00;52656.13;2113585;28;36633;-62
2024/02/07 01:25:02;;;;;;;11.43;0.70;;;;;;;-146.25;100.00;52656.13;2113657;28;31425;-62
2024/02/07 01:26:04;;;;;;;8.30;0.60;;;;;;;-146.25;100.00;52648.00;2113791;28;33476;-62
2024/02/07 01:27:07;;;;;;;9.63;0.57;;;;;;;-146.25;100.00;52680.47;2113592;28;29769;-62
2024/02/07 01:28:09;;;;;;;11.55;0.70;;;;;;;-146.25;100.00;52645.97;2113464;28;35941;-62
2024/02/07 01:29:13;;;;;;;10.88;0.80;;;;;;;-146.25;100.00;52635.84;2113484;28;34007;-62
2024/02/07 01:30:15;;;;;;;11.50;0.75;;;;;;;-146.25;100.00;52652.06;2113742;28;34559;-62
2024/02/07 01:31:16;;;;;;;9.18;0.68;;;;;;;-146.25;100.00;52686.53;2113696;28;35228;-62
2024/02/07 01:32:18;;;;;;;10.65;0.77;;;;;;;-146.25;100.00;52656.13;2113658;28;28830;-62
2024/02/07 01:33:20;;;;;;;11.02;0.50;;;;;;;-146.25;100.00;52656.13;2113102;28;32191;-62
2024/02/07 01:34:23;;;;;;;10.55;0.57;;;;;;;-146.25;100.00;52635.84;2113955;28;34272;-62
2024/02/07 01:35:30;;;;;;;13.10;0.60;;;;;;;-146.25;100.00;52670.31;2113107;28;33615;-62
2024/02/07 01:36:34;;;;;;;9.02;0.73;;;;;;;-146.25;100.00;52637.88;2113909;28;38260;-62
2024/02/07 01:37:40;;;;;;;10.20;1.25;;;;;;;-146.25;100.00;52623.69;2113494;28;34579;-61
2024/02/07 01:38:42;;;;;;;7.70;0.52;;;;;;;-146.25;100.00;52637.88;2114010;28;34735;-62
2024/02/07 01:39:44;;;;;;;8.98;0.50;;;;;;;-146.25;100.00;52645.97;2113080;28;38219;-61
2024/02/07 01:40:46;;;;;;;13.25;0.70;;;;;;;-146.25;100.00;52688.56;2114699;28;20930;-62
2024/02/07 01:41:57;;;;;;;9.25;0.50;;;;;;;-146.25;100.00;52652.06;2112831;28;36494;-61
2024/02/07 01:43:01;;;;;;;10.00;0.47;;;;;;;-146.25;100.00;52668.28;2113847;28;31839;-62
2024/02/07 01:44:03;;;;;;;15.00;0.50;;;;;;;-146.25;100.00;52623.69;2113261;28;32340;-62
2024/02/07 01:45:31;;;;;;;9.13;0.65;;;;;;;-146.25;100.00;52621.66;2113980;28;20902;-62
2024/02/07 01:46:34;;;;;;;9.32;0.63;;;;;;;-146.25;100.00;52648.00;2105267;28;34117;-62
2024/02/07 01:47:35;;;;;;;9.93;0.50;;;;;;;-146.25;100.00;52639.91;2105082;28;20947;-61
2024/02/07 01:48:39;;;;;;;10.93;0.73;;;;;;;-146.25;100.00;52662.22;2105038;28;34093;-62
2024/02/07 01:49:50;;;;;;;6.47;0.63;;;;;;;-146.25;100.00;52692.63;2113277;28;32385;-62
2024/02/07 01:50:52;;;;;;;8.50;0.70;;;;;;;-146.25;100.00;52637.88;2104880;28;33720;-62
2024/02/07 01:51:54;;;;;;;8.07;0.65;;;;;;;-146.25;100.00;52658.16;2096647;28;38636;-61
2024/02/07 01:53:02;;;;;;;8.93;0.45;;;;;;;-146.25;100.00;52611.50;2105765;28;20040;-61
2024/02/07 01:54:06;;;;;;;10.73;0.60;;;;;;;-146.25;100.00;52623.69;2095522;28;37802;-61
2024/02/07 01:55:08;;;;;;;12.50;0.52;;;;;;;-146.25;100.00;52641.94;2089262;28;34967;-62
2024/02/07 01:56:10;;;;;;;8.07;0.35;;;;;;;-146.25;100.00;52648.00;2104672;28;32238;-62
2024/02/07 01:57:14;;;;;;;11.48;0.65;;;;;;;-146.25;100.00;52629.75;2114011;28;28152;-62
2024/02/07 01:58:17;;;;;;;12.15;0.70;;;;;;;-146.25;100.00;52656.13;2104234;28;35050;-62
2024/02/07 01:59:20;;;;;;;10.43;0.40;;;;;;;-146.25;100.00;52639.91;2104812;28;34820;-61
2024/02/07 02:00:25;;;;;;;9.07;0.88;;;;;;;-146.25;100.00;52643.97;2096410;28;20048;-61
2024/02/07 02:01:27;;;;;;;9.55;0.68;;;;;;;-146.25;100.00;52645.97;2097718;28;32714;-62
2024/02/07 02:02:29;;;;;;;14.48;0.80;;;;;;;-146.25;100.00;52676.41;2113028;28;34311;-62
2024/02/07 02:03:31;;;;;;;12.07;0.68;;;;;;;-146.25;100.00;52648.00;2114296;28;33752;-62
2024/02/07 02:04:33;;;;;;;9.48;0.50;;;;;;;-146.25;100.00;52662.22;2113909;28;20041;-62
2024/02/07 02:05:35;;;;;;;9.20;0.60;;;;;;;-146.25;100.00;52656.13;2113324;28;36095;-62
2024/02/07 02:06:37;;;;;;;11.00;1.00;;;;;;;-146.25;100.00;52662.22;2113304;28;34762;-61
2024/02/07 02:07:39;;;;;;;13.38;0.82;;;;;;;-146.25;100.00;52662.22;2114221;28;20040;-62
2024/02/07 02:08:42;;;;;;;11.75;0.90;;;;;;;-146.25;100.00;52643.97;2113421;28;34282;-62
2024/02/07 02:09:45;;;;;;;10.23;0.80;;;;;;;-146.25;100.00;52615.56;2113506;28;32623;-61
2024/02/07 02:10:51;;;;;;;12.18;1.05;;;;;;;-146.25;100.00;52650.03;2112779;28;33015;-61
2024/02/07 02:11:56;;;;;;;13.02;0.70;;;;;;;-146.25;100.00;52639.91;2112310;28;37331;-62
2024/02/07 02:12:58;;;;;;;12.43;0.68;;;;;;;-146.25;100.00;52648.00;2096270;28;35216;-62
2024/02/07 02:14:04;;;;;;;9.52;0.75;;;;;;;-146.25;100.00;52643.97;2096429;28;33103;-62
2024/02/07 02:15:07;;;;;;;7.40;0.55;;;;;;;-146.25;100.00;52676.41;2096384;28;31535;-62
2024/02/07 02:16:08;;;;;;;8.32;0.73;;;;;;;-146.25;100.00;52648.00;2105345;28;34932;-62
2024/02/07 02:17:10;;;;;;;14.60;0.77;;;;;;;-146.25;100.00;52633.81;2112894;28;32998;-62
2024/02/07 02:18:12;;;;;;;11.40;0.70;;;;;;;-146.25;100.00;52635.84;2114510;28;20040;-62
2024/02/07 02:19:17;;;;;;;9.27;0.68;;;;;;;-146.25;100.00;52654.09;2112991;28;35094;-61
2024/02/07 02:20:20;;;;;;;11.20;0.63;;;;;;;-146.25;100.00;52631.78;2113346;28;37133;-62
2024/02/07 02:21:27;;;;;;;12.15;0.68;;;;;;;-146.25;100.00;52650.03;2104224;28;33235;-62
2024/02/07 02:22:46;;;;;;;15.68;0.75;;;;;;;-146.25;100.00;52656.13;2105491;28;34967;-62
2024/02/07 02:24:28;;;;;;;8.52;0.60;;;;;;;-146.25;100.00;52700.72;2114089;28;20040;-62
2024/02/07 02:25:53;;;;;;;12.32;0.70;;;;;;;-146.25;100.00;52643.97;2109436;28;36752;-62
2024/02/07 02:27:31;;;;;;;11.27;0.88;;;;;;;-146.25;100.00;52654.09;2113258;28;33422;-62
2024/02/07 02:29:15;;;;;;;9.30;0.73;;;;;;;-146.25;100.00;52656.13;2114019;28;34213;-62
2024/02/07 02:30:31;;;;;;;14.07;0.88;;;;;;;-146.25;100.00;52674.38;2113453;28;34116;-62
2024/02/07 02:31:34;;;;;;;9.63;0.75;;;;;;;-146.25;100.00;52686.53;2104044;28;37286;-62
2024/02/07 02:32:41;;;;;;;9.18;0.50;;;;;;;-146.25;100.00;52648.00;2107343;28;34097;-62
2024/02/07 02:33:44;;;;;;;10.50;0.65;;;;;;;-146.25;100.00;52615.56;2113097;28;36663;-62
2024/02/07 02:34:46;;;;;;;11.80;0.95;;;;;;;-146.25;100.00;52668.28;2104116;28;35871;-61
2024/02/07 02:35:49;;;;;;;11.45;0.95;;;;;;;-146.25;100.00;52670.31;2096040;28;35507;-62
2024/02/07 02:36:51;;;;;;;13.77;0.63;;;;;;;-146.25;100.00;52639.91;2096406;28;36780;-62
2024/02/07 02:37:53;;;;;;;11.30;0.60;;;;;;;-146.25;100.00;52706.81;2104555;28;33059;-63
2024/02/07 02:38:55;;;;;;;14.05;0.90;;;;;;;-146.25;100.00;52666.25;2113850;28;20044;-62
2024/02/07 02:39:57;;;;;;;10.82;0.70;;;;;;;-146.25;100.00;52652.06;2113178;28;33058;-61
2024/02/07 02:40:59;;;;;;;7.32;0.50;;;;;;;-146.25;100.00;52625.72;2113226;28;30850;-62
2024/02/07 02:42:02;;;;;;;10.45;1.25;;;;;;;-146.25;100.00;52641.94;2112955;28;35796;-61
2024/02/07 02:43:04;;;;;;;11.25;1.05;;;;;;;-146.25;100.00;52650.03;2128752;22;35661;-65
2024/02/07 02:44:05;;;;;;;12.15;0.57;;;;;;;-146.25;100.00;52662.22;2113587;28;33631;-65
2024/02/07 02:45:08;;;;;;;9.18;0.70;;;;;;;-146.25;100.00;52639.91;2112706;28;37601;-65
2024/02/07 02:46:10;;;;;;;11.95;0.98;;;;;;;-146.25;100.00;52613.53;2112778;28;37071;-65
2024/02/07 02:47:13;;;;;;;15.30;1.33;;;;;;;-146.25;100.00;52672.34;2113590;28;33248;-65
2024/02/07 02:48:14;;;;;;;12.35;0.90;;;;;;;-146.25;100.00;52645.97;2112871;28;35044;-65
2024/02/07 02:49:19;;;;;;;14.80;0.90;;;;;;;-146.25;100.00;52635.84;2113555;28;35353;-65
2024/02/07 02:50:25;;;;;;;16.88;0.47;;;;;;;-146.25;100.00;52643.97;2112627;28;33759;-65
2024/02/07 02:51:27;;;;;;;13.02;0.85;;;;;;;-146.25;100.00;52639.91;2114091;28;33568;-65
2024/02/07 02:52:33;;;;;;;13.38;0.70;;;;;;;-146.25;100.00;52627.75;2112866;28;37263;-65
2024/02/07 02:53:37;;;;;;;15.68;1.23;;;;;;;-146.25;100.00;52660.19;2113167;28;35494;-65
2024/02/07 02:54:43;;;;;;;10.48;0.85;;;;;;;-146.25;100.00;52623.69;2112782;28;36558;-65
2024/02/07 02:55:48;;;;;;;14.35;0.85;;;;;;;-146.25;100.00;52664.22;2113145;28;36808;-65
2024/02/07 02:56:50;;;;;;;12.48;0.52;;;;;;;-146.25;100.00;52686.53;2112823;28;33850;-65
2024/02/07 02:57:55;;;;;;;10.43;0.75;;;;;;;-146.25;100.00;52645.97;2113488;28;34983;-65
2024/02/07 02:58:58;;;;;;;16.15;0.80;;;;;;;-146.25;100.00;52633.81;2112943;28;36892;-65
2024/02/07 03:00:06;;;;;;;8.55;0.70;;;;;;;-146.25;100.00;52656.13;2112881;28;34788;-65
2024/02/07 03:01:09;;;;;;;12.25;1.08;;;;;;;-146.25;100.00;52633.81;2112746;28;39479;-65
2024/02/07 03:02:13;;;;;;;12.05;1.05;;;;;;;-146.25;100.00;52666.25;2104571;28;30590;-65
2024/02/07 03:03:16;;;;;;;11.93;1.13;;;;;;;-146.25;100.00;52641.94;2104247;28;32288;-65
2024/02/07 03:04:17;;;;;;;11.85;1.10;;;;;;;-146.25;100.00;52623.69;2113242;28;37746;-65
2024/02/07 03:06:58;;;;;;;16.20;1.00;;;;;;;-146.25;100.00;52680.47;2112790;28;35743;-65
2024/02/07 03:08:15;;;;;;;16.50;1.45;;;;;;;-146.25;100.00;52633.81;2103899;28;41646;-65
2024/02/07 03:09:26;;;;;;;21.48;1.17;;;;;;;-146.25;100.00;52643.97;2107031;28;21050;-65
2024/02/07 03:10:31;;;;;;;17.30;1.05;;;;;;;-146.25;100.00;52658.16;2113487;28;33279;-65
2024/02/07 03:11:34;;;;;;;16.45;1.30;;;;;;;-146.25;100.00;52648.00;2113017;28;34846;-65
2024/02/07 03:12:37;;;;;;;15.02;1.10;;;;;;;-146.25;100.00;52656.13;2112956;28;20143;-65
2024/02/07 03:13:39;;;;;;;12.50;0.85;;;;;;;-146.25;100.00;52652.06;2114892;28;35018;-65
2024/02/07 03:14:42;;;;;;;19.75;1.38;;;;;;;-146.25;100.00;52633.81;2114594;28;34283;-65
2024/02/07 03:15:43;;;;;;;17.00;1.20;;;;;;;-146.25;100.00;52625.72;2112738;28;37105;-65
2024/02/07 03:16:46;;;;;;;12.27;0.90;;;;;;;-146.25;100.00;52607.47;2112883;28;32414;-65
2024/02/07 03:17:48;;;;;;;11.50;0.90;;;;;;;-146.25;100.00;52660.19;2112944;28;33615;-65
2024/02/07 03:18:50;;;;;;;14.88;0.95;;;;;;;-146.25;100.00;52611.50;2112937;28;37350;-65
2024/02/07 03:19:51;;;;;;;17.10;0.70;;;;;;;-146.25;100.00;52621.66;2113099;28;34664;-64
2024/02/07 03:20:54;;;;;;;22.15;2.10;;;;;;;-146.25;100.00;52603.41;2113184;28;38963;-65
2024/02/07 03:21:55;;;;;;;21.73;1.50;;;;;;;-146.25;100.00;52597.31;2112800;28;29989;-65
2024/02/07 03:23:00;;;;;;;19.00;1.33;;;;;;;-146.25;100.00;52641.94;2113265;28;31495;-65
2024/02/07 03:24:02;;;;;;;13.45;1.40;;;;;;;-146.25;100.00;52648.00;2112888;28;38549;-65
2024/02/07 03:25:13;;;;;;;15.73;0.90;;;;;;;-146.25;100.00;52619.63;2112934;28;34895;-65
2024/02/07 03:26:15;;;;;;;15.20;0.90;;;;;;;-146.25;100.00;52599.34;2112821;28;35125;-65
2024/02/07 03:27:17;;;;;;;18.55;1.50;;;;;;;-146.25;100.00;52627.75;2112939;28;32140;-65
2024/02/07 03:28:19;;;;;;;16.67;1.23;;;;;;;-146.25;100.00;52658.16;2113172;28;20079;-65
2024/02/07 03:29:25;;;;;;;12.35;1.10;;;;;;;-146.25;100.00;52633.81;2113209;28;20079;-65
2024/02/07 03:30:27;;;;;;;15.50;1.10;;;;;;;-146.25;100.00;52643.97;2112964;28;35387;-65
2024/02/07 03:31:36;;;;;;;13.02;0.90;;;;;;;-146.25;100.00;52660.19;2113641;28;20032;-65
2024/02/07 03:32:38;;;;;;;14.32;0.90;;;;;;;-146.25;100.00;52637.88;2113110;28;32012;-65
2024/02/07 03:33:41;;;;;;;18.27;1.50;;;;;;;-146.25;100.00;52668.28;2112330;28;35750;-65
2024/02/07 03:34:44;;;;;;;14.40;1.20;;;;;;;-146.25;100.00;52597.31;2112885;28;33857;-65
2024/02/07 03:35:46;;;;;;;19.10;1.60;;;;;;;-146.25;100.00;52652.06;2112847;28;23490;-65
2024/02/07 03:36:48;;;;;;;17.35;1.50;;;;;;;-146.25;100.00;52621.66;2112881;28;34044;-65
2024/02/07 03:37:50;;;;;;;16.05;1.25;;;;;;;-146.25;100.00;52605.44;2113163;28;33146;-65
2024/02/07 03:38:52;;;;;;;13.13;1.27;;;;;;;-146.25;100.00;52607.47;2113086;28;30195;-65
2024/02/07 03:39:54;;;;;;;17.85;1.45;;;;;;;-146.25;100.00;52648.00;2112836;28;35383;-65
2024/02/07 03:40:56;;;;;;;11.30;1.20;;;;;;;-146.25;100.00;52650.03;2112703;28;33064;-65
2024/02/07 03:41:58;;;;;;;15.23;1.08;;;;;;;-146.25;100.00;52650.03;2113001;28;34216;-65
2024/02/07 03:43:00;;;;;;;16.88;1.98;;;;;;;-146.25;100.00;52639.91;2103892;28;36504;-65
2024/02/07 03:44:02;;;;;;;16.33;1.88;;;;;;;-146.25;100.00;52627.75;2104191;28;32802;-65
2024/02/07 03:45:06;;;;;;;17.13;1.33;;;;;;;-146.25;100.00;52652.06;2112291;28;34997;-65
2024/02/07 03:46:08;;;;;;;14.25;1.30;;;;;;;-146.25;100.00;52611.50;2112922;28;32409;-65
2024/02/07 03:47:12;;;;;;;13.23;1.10;;;;;;;-146.25;100.00;52650.03;2112869;28;36924;-65
2024/02/07 03:48:15;;;;;;;17.73;1.10;;;;;;;-146.25;100.00;52593.25;2103527;28;33914;-65
2024/02/07 03:49:20;;;;;;;11.15;0.88;;;;;;;-146.25;100.00;52635.84;2104562;28;20041;-66
2024/02/07 03:50:25;;;;;;;17.40;1.20;;;;;;;-146.25;100.00;52635.84;2112833;28;35963;-66
2024/02/07 03:51:28;;;;;;;21.60;1.40;;;;;;;-146.25;100.00;52639.91;2112770;28;31472;-65
2024/02/07 03:52:30;;;;;;;15.00;1.35;;;;;;;-146.25;100.00;52625.72;2112459;28;36370;-65
2024/02/07 03:53:34;;;;;;;14.65;1.10;;;;;;;-146.25;100.00;52656.13;2113218;28;32299;-65
2024/02/07 03:54:49;;;;;;;14.80;1.33;;;;;;;-146.25;100.00;52623.69;2112506;28;34502;-65
2024/02/07 03:55:51;;;;;;;19.73;1.65;;;;;;;-146.25;100.00;52658.16;2112578;28;38323;-65
2024/02/07 03:56:53;;;;;;;15.85;1.42;;;;;;;-146.25;100.00;52648.00;2112711;28;33788;-65
2024/02/07 03:57:56;;;;;;;20.50;1.48;;;;;;;-146.25;100.00;52625.72;2113432;28;20418;-65
2024/02/07 03:58:58;;;;;;;16.85;1.50;;;;;;;-146.25;100.00;52629.75;2112776;28;34625;-65
2024/02/07 04:00:00;;;;;;;16.45;1.38;;;;;;;-146.25;100.00;52641.94;2112753;28;32830;-65
2024/02/07 04:01:02;;;;;;;16.20;1.70;;;;;;;-146.25;100.00;52666.25;2103617;28;33668;-65
2024/02/07 04:02:07;;;;;;;14.88;1.48;;;;;;;-146.25;100.00;52637.88;2104051;28;37597;-65
2024/02/07 04:03:09;;;;;;;22.30;1.80;;;;;;;-146.25;100.00;52660.19;2094899;28;34476;-65
2024/02/07 04:04:11;;;;;;;20.02;1.73;;;;;;;-146.25;100.00;52615.56;2096306;28;20041;-65
2024/02/07 04:05:13;;;;;;;24.00;1.75;;;;;;;-146.25;100.00;52660.19;2112733;28;35445;-64
2024/02/07 04:06:15;;;;;;;13.57;1.40;;;;;;;-146.25;100.00;52627.75;2103701;28;33096;-65
2024/02/07 04:07:23;;;;;;;15.10;1.67;;;;;;;-146.25;100.00;52668.28;2096062;28;20041;-65
2024/02/07 04:08:25;;;;;;;17.83;1.63;;;;;;;-146.25;100.00;52656.13;2105147;28;32671;-65
2024/02/07 04:09:28;;;;;;;19.23;1.65;;;;;;;-146.25;100.00;52639.91;2112584;28;36311;-65
2024/02/07 04:10:34;;;;;;;18.55;1.90;;;;;;;-146.25;100.00;52637.88;2112697;28;33755;-64
2024/02/07 05:16:11;;;;;;;13.15;1.35;;;;;;;-146.25;100.00;52633.81;2113309;28;38292;-65
2024/02/07 05:17:21;;;;;;;14.80;1.25;;;;;;;-146.25;100.00;52633.81;2114210;28;30670;-65
2024/02/07 05:18:25;;;;;;;20.20;1.90;;;;;;;-146.25;100.00;52635.84;2113793;28;34060;-65
2024/02/07 05:19:27;;;;;;;16.17;0.93;;;;;;;-146.25;100.00;52621.66;2104867;28;36032;-65
2024/02/07 05:20:29;;;;;;;15.10;1.13;;;;;;;-146.25;100.00;52643.97;2105111;28;34136;-65
2024/02/07 05:21:30;;;;;;;17.33;1.67;;;;;;;-146.25;100.00;52652.06;2104591;28;35863;-65
2024/02/07 05:22:32;;;;;;;21.33;1.70;;;;;;;-146.25;100.00;52664.22;2105582;28;20072;-65
2024/02/07 05:23:34;;;;;;;14.63;1.58;;;;;;;-146.25;100.00;52658.16;2114198;28;28607;-65
2024/02/07 05:24:37;;;;;;;15.05;1.00;;;;;;;-146.25;100.00;52656.13;2113118;28;37826;-65
2024/02/07 05:25:39;;;;;;;19.67;1.50;;;;;;;-146.25;100.00;52631.78;2113941;28;32640;-65
2024/02/07 05:26:41;;;;;;;17.88;2.03;;;;;;;-146.25;100.00;52648.00;2113194;28;36003;-65
2024/02/07 05:27:43;;;;;;;13.98;1.35;;;;;;;-146.25;100.00;52666.25;2114760;28;20036;-65
2024/02/07 05:28:45;;;;;;;13.20;1.23;;;;;;;-146.25;100.00;52656.13;2113471;28;35999;-65
2024/02/07 05:29:49;;;;;;;15.80;1.80;;;;;;;-146.25;100.00;52641.94;2113419;28;33535;-65
2024/02/07 05:30:53;;;;;;;16.25;1.30;;;;;;;-146.25;100.00;52611.50;2113385;28;33667;-65
2024/02/07 05:31:54;;;;;;;11.65;1.20;;;;;;;-146.25;100.00;52670.31;2113818;28;35318;-65
2024/02/07 05:32:56;;;;;;;17.15;1.50;;;;;;;-146.25;100.00;52635.84;2113966;28;20448;-65
2024/02/07 05:33:58;;;;;;;18.13;1.83;;;;;;;-146.25;100.00;52658.16;2113903;28;37174;-65
2024/02/07 05:35:00;;;;;;;12.50;1.48;;;;;;;-146.25;100.00;52613.53;2113256;28;32194;-65
2024/02/07 05:36:02;;;;;;;14.20;1.33;;;;;;;-146.25;100.00;52648.00;2113692;27;31740;-65
2024/02/07 05:37:04;;;;;;;18.02;1.75;;;;;;;-146.25;100.00;52641.94;2113333;28;35639;-65
2024/02/07 05:38:10;;;;;;;20.10;1.80;;;;;;;-146.25;100.00;52690.59;2114233;28;20044;-65
2024/02/07 05:39:14;;;;;;;16.02;1.45;;;;;;;-146.25;100.00;52672.34;2113105;28;37421;-65
2024/02/07 05:40:16;;;;;;;18.35;1.45;;;;;;;-146.25;100.00;52641.94;2114382;28;20121;-64
2024/02/07 05:41:18;;;;;;;13.35;1.25;;;;;;;-146.25;100.00;52658.16;2113613;28;35383;-65
2024/02/07 05:42:20;;;;;;;14.52;2.13;;;;;;;-146.25;100.00;52660.19;2104906;28;34497;-65
2024/02/07 05:43:21;;;;;;;14.85;1.27;;;;;;;-146.25;100.00;52650.03;2103877;28;35925;-65
2024/02/07 05:44:23;;;;;;;16.40;1.55;;;;;;;-146.25;100.00;52672.34;2113861;28;34803;-65
2024/02/07 05:45:25;;;;;;;15.07;1.38;;;;;;;-146.25;100.00;52660.19;2112988;28;33672;-64
2024/02/07 05:46:27;;;;;;;14.30;1.20;;;;;;;-146.25;100.00;52682.47;2114471;28;20040;-65
2024/02/07 05:47:30;;;;;;;16.83;1.73;;;;;;;-146.25;100.00;52643.97;2113508;28;37965;-64
2024/02/07 05:48:33;;;;;;;13.50;1.73;;;;;;;-146.25;100.00;52643.97;2113819;28;33665;-65
2024/02/07 05:49:34;;;;;;;21.40;1.58;;;;;;;-146.25;100.00;52678.44;2113303;28;35570;-64
2024/02/07 05:50:36;;;;;;;18.30;1.80;;;;;;;-146.25;100.00;52656.13;2114306;28;20908;-65
2024/02/07 05:51:38;;;;;;;14.85;1.42;;;;;;;-146.25;100.00;52652.06;2113380;28;36581;-65
2024/02/07 05:52:40;;;;;;;15.48;1.20;;;;;;;-146.25;100.00;52645.97;2104714;28;32465;-64